Time;durP1;ratioP1;P1;durP2;ratioP2;P2;SDS_P1;SDS_P2;PMS_P1;PMS_P2;Temp;Humidity;BMP_temperature;BMP_pressure;BME280_temperature;BME280_humidity;BME280_pressure;Samples;Min_cycle;Max_cycle;Signal;HPM_P1;HPM_P2
2021/07/30 00:02:00;;;;;;;5.80;5.25;;;18.70;99.90;;;;;;5055290;28;20476;-82
2021/07/30 00:04:25;;;;;;;9.20;6.20;;;18.70;99.90;;;;;;5055017;28;20032;-82
2021/07/30 00:06:51;;;;;;;9.00;5.97;;;18.70;99.90;;;;;;5055459;28;20384;-83
2021/07/30 00:09:17;;;;;;;7.95;6.00;;;18.70;99.90;;;;;;5054991;28;20092;-82
2021/07/30 00:11:43;;;;;;;7.47;5.40;;;18.80;99.90;;;;;;5054589;28;20072;-81
2021/07/30 00:14:08;;;;;;;8.98;6.03;;;18.80;99.90;;;;;;5054965;28;20419;-81
2021/07/30 00:16:34;;;;;;;7.93;6.53;;;18.70;99.90;;;;;;5055012;28;20037;-82
2021/07/30 00:19:00;;;;;;;9.80;6.05;;;18.60;99.90;;;;;;5054882;28;20032;-82
2021/07/30 00:21:26;;;;;;;8.02;5.93;;;18.60;99.90;;;;;;5054729;28;20111;-84
2021/07/30 00:23:52;;;;;;;8.25;6.30;;;18.50;99.90;;;;;;5054887;28;20060;-84
2021/07/30 00:26:17;;;;;;;6.50;5.65;;;18.40;99.90;;;;;;5054789;28;20138;-84
2021/07/30 00:28:43;;;;;;;7.35;6.15;;;18.40;99.90;;;;;;5054821;28;20481;-82
2021/07/30 00:31:09;;;;;;;7.57;5.95;;;18.40;99.90;;;;;;5054760;28;20518;-82
2021/07/30 00:33:35;;;;;;;7.07;5.95;;;18.30;99.90;;;;;;5054551;28;20460;-81
2021/07/30 00:36:01;;;;;;;7.43;5.85;;;18.40;99.90;;;;;;5054644;28;20037;-82
2021/07/30 00:38:27;;;;;;;7.15;5.75;;;18.40;99.90;;;;;;5054567;28;20028;-83
2021/07/30 00:40:52;;;;;;;7.80;6.10;;;18.40;99.90;;;;;;5054541;28;20029;-81
2021/07/30 00:43:18;;;;;;;7.70;5.68;;;18.40;99.90;;;;;;5054731;28;20119;-81
2021/07/30 00:45:45;;;;;;;8.45;6.47;;;18.40;99.90;;;;;;5054354;28;20021;-84
2021/07/30 00:48:11;;;;;;;9.77;6.15;;;18.40;99.90;;;;;;5053980;28;20044;-83
2021/07/30 00:50:38;;;;;;;9.90;6.28;;;18.40;99.90;;;;;;5054410;28;20032;-85
2021/07/30 00:53:04;;;;;;;9.82;6.00;;;18.40;99.90;;;;;;5054017;28;20025;-82
2021/07/30 00:55:30;;;;;;;13.65;6.80;;;18.40;99.90;;;;;;5054193;28;20041;-84
2021/07/30 00:57:57;;;;;;;14.27;5.78;;;18.40;99.90;;;;;;5054321;28;20095;-84
2021/07/30 01:00:23;;;;;;;8.68;5.65;;;18.40;99.90;;;;;;5054072;28;20029;-85
2021/07/30 01:02:49;;;;;;;9.40;6.03;;;18.30;99.90;;;;;;5053782;28;20017;-82
2021/07/30 01:05:16;;;;;;;6.00;5.30;;;18.40;99.90;;;;;;5054968;28;20032;-82
2021/07/30 01:07:42;;;;;;;7.07;5.93;;;18.40;99.90;;;;;;5054057;28;20328;-81
2021/07/30 01:10:08;;;;;;;8.07;5.55;;;18.40;99.90;;;;;;5053807;28;20025;-85
2021/07/30 01:12:33;;;;;;;11.00;5.80;;;18.40;99.90;;;;;;5053522;28;20018;-81
2021/07/30 01:14:59;;;;;;;7.25;6.03;;;18.40;99.90;;;;;;5053792;28;20036;-83
2021/07/30 01:17:25;;;;;;;8.25;5.90;;;18.40;99.90;;;;;;5053828;28;20094;-82
2021/07/30 01:19:54;;;;;;;10.95;5.72;;;18.30;99.90;;;;;;5053626;28;20028;-84
2021/07/30 01:22:29;;;;;;;7.75;6.32;;;18.30;99.90;;;;;;5053222;28;20025;-82
2021/07/30 01:24:55;;;;;;;6.90;6.20;;;18.20;99.90;;;;;;5053701;28;20506;-80
2021/07/30 01:27:21;;;;;;;9.80;5.82;;;18.10;99.90;;;;;;5053770;28;20115;-82
2021/07/30 01:29:48;;;;;;;6.28;5.40;;;18.10;99.90;;;;;;5053543;28;20029;-82
2021/07/30 01:32:14;;;;;;;9.50;6.15;;;18.20;99.90;;;;;;5053262;28;20052;-84
2021/07/30 01:34:42;;;;;;;8.75;6.13;;;18.10;99.90;;;;;;5053123;28;20037;-83
2021/07/30 01:37:11;;;;;;;7.93;5.90;;;18.20;99.90;;;;;;5053536;28;20092;-82
2021/07/30 01:39:37;;;;;;;8.68;6.00;;;18.10;99.90;;;;;;5053445;28;20422;-83
2021/07/30 01:42:04;;;;;;;7.85;5.55;;;18.10;99.90;;;;;;5053206;28;20029;-81
2021/07/30 01:44:30;;;;;;;9.30;5.80;;;18.10;99.90;;;;;;5053160;28;20033;-83
2021/07/30 01:46:56;;;;;;;8.43;5.88;;;18.10;99.90;;;;;;5052923;28;20037;-82
2021/07/30 01:49:21;;;;;;;7.07;5.60;;;18.20;99.90;;;;;;5053380;28;20032;-84
2021/07/30 01:51:47;;;;;;;7.82;6.15;;;18.20;99.90;;;;;;5054547;28;20029;-83
2021/07/30 01:54:15;;;;;;;7.43;5.78;;;18.20;99.90;;;;;;5053517;28;20021;-82
2021/07/30 01:56:42;;;;;;;9.77;5.43;;;18.20;99.90;;;;;;5053408;28;20041;-82
2021/07/30 01:59:11;;;;;;;7.90;6.00;;;18.10;99.90;;;;;;5053093;28;20025;-85
2021/07/30 02:01:37;;;;;;;11.63;5.90;;;18.10;99.90;;;;;;5053103;28;20071;-84
2021/07/30 02:04:03;;;;;;;6.63;5.90;;;18.10;99.90;;;;;;5053079;28;20021;-81
2021/07/30 02:06:29;;;;;;;11.68;6.15;;;18.00;99.90;;;;;;5054417;28;20025;-82
2021/07/30 02:08:55;;;;;;;10.88;6.03;;;18.00;99.90;;;;;;5053032;28;20033;-84
2021/07/30 02:11:20;;;;;;;7.50;5.90;;;18.00;99.90;;;;;;5052795;28;20029;-83
2021/07/30 02:16:30;;;;;;;7.57;5.93;;;18.00;99.90;;;;;;5053970;28;20106;-81
2021/07/30 02:18:56;;;;;;;7.72;5.55;;;17.90;99.90;;;;;;5052965;28;20029;-84
2021/07/30 02:21:22;;;;;;;5.85;5.25;;;18.00;99.90;;;;;;5052561;28;20029;-82
2021/07/30 02:23:48;;;;;;;7.43;4.82;;;17.90;99.90;;;;;;5052983;28;20029;-81
2021/07/30 02:26:14;;;;;;;7.78;5.25;;;18.00;99.90;;;;;;5052864;28;20033;-84
2021/07/30 02:28:40;;;;;;;7.30;5.43;;;18.00;99.90;;;;;;5052628;28;20117;-85
2021/07/30 02:31:05;;;;;;;7.20;5.15;;;18.00;99.90;;;;;;5052861;28;20029;-81
2021/07/30 02:33:31;;;;;;;8.38;4.75;;;18.00;99.90;;;;;;5052673;28;20025;-84
2021/07/30 02:35:57;;;;;;;9.65;5.18;;;18.00;99.90;;;;;;5056856;28;20121;-82
2021/07/30 02:38:22;;;;;;;8.63;4.72;;;17.90;99.90;;;;;;5056951;28;20045;-82
2021/07/30 02:40:48;;;;;;;7.20;4.72;;;17.90;99.90;;;;;;5056788;28;20375;-83
2021/07/30 02:43:14;;;;;;;5.40;4.78;;;17.90;99.90;;;;;;5056720;28;20024;-82
2021/07/30 02:45:39;;;;;;;6.15;5.35;;;17.90;99.90;;;;;;5056664;28;20103;-82
2021/07/30 02:48:05;;;;;;;10.38;4.88;;;17.90;99.90;;;;;;5056468;28;20072;-85
2021/07/30 02:50:31;;;;;;;6.70;5.10;;;18.00;99.90;;;;;;5056745;28;20044;-85
2021/07/30 02:52:56;;;;;;;7.40;5.20;;;17.90;99.90;;;;;;5056323;28;20074;-83
2021/07/30 02:55:22;;;;;;;7.15;4.68;;;17.90;99.90;;;;;;5056361;28;20029;-83
2021/07/30 02:57:48;;;;;;;6.47;4.63;;;17.90;99.90;;;;;;5056604;28;20499;-83
2021/07/30 03:00:14;;;;;;;6.68;5.80;;;17.90;99.90;;;;;;5056404;28;20483;-83
2021/07/30 03:02:39;;;;;;;7.45;6.00;;;17.80;99.90;;;;;;5056303;28;20032;-85
2021/07/30 03:05:05;;;;;;;6.30;5.70;;;17.90;99.90;;;;;;5056503;28;20021;-82
2021/07/30 03:07:31;;;;;;;11.38;6.00;;;17.80;99.90;;;;;;5056291;28;20565;-82
2021/07/30 03:09:57;;;;;;;8.23;6.35;;;17.70;99.90;;;;;;5056312;28;20021;-83
2021/07/30 03:12:23;;;;;;;7.25;5.93;;;17.70;99.90;;;;;;5056236;28;20071;-81
2021/07/30 03:14:49;;;;;;;8.30;6.63;;;17.60;99.90;;;;;;5056073;28;20029;-83
2021/07/30 03:17:14;;;;;;;9.27;5.97;;;17.60;99.90;;;;;;5056115;28;20086;-85
2021/07/30 03:19:40;;;;;;;7.57;5.85;;;17.60;99.90;;;;;;5055998;28;20472;-81
2021/07/30 03:22:06;;;;;;;7.65;5.80;;;17.60;99.90;;;;;;5057191;28;20399;-82
2021/07/30 03:24:31;;;;;;;7.43;5.72;;;17.60;99.90;;;;;;5056012;28;20083;-83
2021/07/30 03:26:57;;;;;;;8.35;5.70;;;17.70;99.90;;;;;;5056214;28;20745;-84
2021/07/30 03:29:22;;;;;;;7.50;5.60;;;17.80;99.90;;;;;;5056143;28;20048;-85
2021/07/30 03:31:49;;;;;;;6.43;5.53;;;17.70;99.90;;;;;;5055762;28;20491;-85
2021/07/30 03:34:15;;;;;;;8.73;5.65;;;17.70;99.90;;;;;;5055962;28;20029;-85
2021/07/30 03:36:41;;;;;;;6.20;5.40;;;17.70;99.90;;;;;;5055731;28;20044;-83
2021/07/30 03:39:08;;;;;;;8.23;5.68;;;17.60;99.90;;;;;;5055585;28;20022;-84
2021/07/30 03:41:34;;;;;;;10.25;6.05;;;17.60;99.90;;;;;;5056724;28;20032;-87
2021/07/30 03:44:00;;;;;;;10.70;5.78;;;17.60;99.90;;;;;;5055568;28;20027;-87
2021/07/30 03:46:25;;;;;;;8.50;5.63;;;17.60;99.90;;;;;;5054780;28;20036;-81
2021/07/30 03:48:51;;;;;;;8.75;6.05;;;17.60;99.90;;;;;;5055476;28;20060;-84
2021/07/30 03:51:17;;;;;;;9.63;6.22;;;17.70;99.90;;;;;;5055567;28;20075;-81
2021/07/30 03:53:42;;;;;;;8.77;6.18;;;17.70;99.90;;;;;;5055413;28;20052;-85
2021/07/30 03:56:15;;;;;;;10.13;5.85;;;17.80;99.90;;;;;;5055372;28;20048;-85
2021/07/30 03:58:41;;;;;;;9.10;5.80;;;17.80;99.90;;;;;;5055295;28;20028;-83
2021/07/30 04:01:08;;;;;;;7.82;5.93;;;17.70;99.90;;;;;;5055257;28;20112;-82
2021/07/30 04:03:34;;;;;;;9.95;5.63;;;17.80;99.90;;;;;;5056270;28;20017;-83
2021/07/30 04:06:03;;;;;;;7.32;6.30;;;17.80;99.90;;;;;;5054838;28;20036;-84
2021/07/30 04:08:29;;;;;;;7.60;6.50;;;17.80;99.90;;;;;;5055094;28;20075;-83
2021/07/30 04:10:55;;;;;;;7.60;5.93;;;17.80;99.90;;;;;;5056758;28;20037;-83
2021/07/30 04:13:20;;;;;;;9.35;6.10;;;17.90;99.90;;;;;;5056099;28;20036;-84
2021/07/30 04:15:46;;;;;;;9.43;5.88;;;17.80;99.90;;;;;;5055036;28;20033;-85
2021/07/30 04:18:12;;;;;;;9.57;6.22;;;17.80;99.90;;;;;;5054986;28;20028;-82
2021/07/30 04:20:39;;;;;;;10.00;6.45;;;17.80;99.90;;;;;;5055252;28;20028;-84
2021/07/30 04:23:04;;;;;;;11.35;6.97;;;17.70;99.90;;;;;;5055252;28;20028;-83
2021/07/30 04:25:30;;;;;;;12.73;6.50;;;17.70;99.90;;;;;;5055746;28;20036;-84
2021/07/30 04:27:55;;;;;;;10.05;6.32;;;17.80;99.90;;;;;;5054927;28;20021;-82
2021/07/30 04:30:23;;;;;;;9.32;5.68;;;17.80;99.90;;;;;;5054886;28;20028;-81
2021/07/30 04:32:48;;;;;;;6.80;5.05;;;19.20;99.90;;;;;;5053631;28;20499;-80
2021/07/30 04:35:14;;;;;;;10.73;6.35;;;20.00;99.90;;;;;;5056509;28;20033;-79
2021/07/30 04:37:40;;;;;;;11.18;8.43;;;20.40;99.90;;;;;;5054378;28;20021;-79
2021/07/30 04:40:06;;;;;;;21.70;18.40;;;20.40;99.90;;;;;;5058871;28;20092;-78
2021/07/30 04:42:31;;;;;;;8.75;7.55;;;20.90;99.90;;;;;;5053698;28;20056;-82
2021/07/30 04:44:57;;;;;;;16.58;8.20;;;20.60;99.90;;;;;;5053809;28;20472;-79
2021/07/30 04:47:23;;;;;;;6.95;6.25;;;20.20;99.90;;;;;;5053932;28;20048;-78
2021/07/30 04:49:49;;;;;;;9.30;5.60;;;19.90;99.90;;;;;;5053613;28;20074;-79
2021/07/30 04:52:14;;;;;;;8.38;6.10;;;20.10;99.90;;;;;;5053539;28;20119;-78
2021/07/30 04:54:40;;;;;;;6.47;5.38;;;19.90;99.90;;;;;;5053432;28;20465;-79
2021/07/30 04:57:08;;;;;;;6.55;5.20;;;19.90;99.90;;;;;;5053120;28;20033;-78
2021/07/30 04:59:33;;;;;;;10.18;5.97;;;20.40;99.90;;;;;;5053121;28;20025;-79
2021/07/30 05:01:59;;;;;;;6.68;5.22;;;20.60;99.90;;;;;;5054362;28;20032;-78
2021/07/30 05:04:25;;;;;;;8.23;5.93;;;21.00;99.90;;;;;;5053288;28;20036;-77
2021/07/30 05:06:51;;;;;;;7.65;5.40;;;21.30;99.90;;;;;;5053423;28;20028;-77
2021/07/30 05:09:16;;;;;;;8.13;5.88;;;21.10;99.90;;;;;;5053366;28;20028;-81
2021/07/30 05:11:42;;;;;;;7.07;5.65;;;21.20;99.90;;;;;;5053327;28;20028;-78
2021/07/30 05:14:08;;;;;;;7.97;5.55;;;20.90;99.90;;;;;;5053123;28;20420;-79
2021/07/30 05:16:34;;;;;;;9.80;6.75;;;20.50;99.90;;;;;;5053121;28;20072;-78
2021/07/30 05:19:00;;;;;;;7.90;6.03;;;20.20;99.90;;;;;;5053285;28;20024;-86
2021/07/30 05:21:26;;;;;;;8.45;5.97;;;20.30;99.90;;;;;;5053165;28;20051;-78
2021/07/30 05:23:54;;;;;;;7.47;5.45;;;20.40;99.90;;;;;;5053302;28;20044;-78
2021/07/30 05:26:19;;;;;;;8.32;6.38;;;20.40;99.90;;;;;;5053285;28;20533;-77
2021/07/30 05:28:45;;;;;;;8.90;6.45;;;20.30;99.90;;;;;;5053171;28;20021;-85
2021/07/30 05:31:15;;;;;;;7.95;6.40;;;20.20;99.90;;;;;;5053221;28;20057;-79
2021/07/30 05:33:42;;;;;;;7.35;6.20;;;20.20;99.90;;;;;;5052843;28;20017;-78
2021/07/30 05:36:08;;;;;;;9.63;6.30;;;20.30;99.90;;;;;;5052877;28;20036;-79
2021/07/30 05:38:33;;;;;;;7.72;6.22;;;20.30;99.90;;;;;;5054057;28;20032;-78
2021/07/30 05:40:59;;;;;;;9.40;6.40;;;20.50;99.90;;;;;;5052613;28;20025;-79
2021/07/30 05:43:24;;;;;;;9.25;6.78;;;20.60;99.90;;;;;;5053091;28;20483;-78
2021/07/30 05:45:52;;;;;;;7.65;6.30;;;20.60;99.90;;;;;;5054232;28;20033;-84
2021/07/30 05:48:17;;;;;;;8.95;5.75;;;20.80;99.90;;;;;;5052644;28;20556;-79
2021/07/30 05:50:48;;;;;;;9.40;6.80;;;21.10;99.90;;;;;;5052865;28;20142;-78
2021/07/30 05:53:13;;;;;;;9.80;6.63;;;21.60;99.90;;;;;;5052946;28;20021;-78
2021/07/30 05:55:39;;;;;;;8.65;6.25;;;21.90;99.90;;;;;;5054207;28;20032;-83
2021/07/30 05:58:05;;;;;;;9.95;5.35;;;22.20;99.90;;;;;;5052792;28;20079;-78
2021/07/30 06:00:30;;;;;;;9.93;5.05;;;22.30;99.90;;;;;;5052810;28;20036;-78
2021/07/30 06:02:56;;;;;;;6.65;5.28;;;22.60;99.90;;;;;;5052677;28;20112;-79
2021/07/30 06:05:22;;;;;;;7.35;5.38;;;22.80;99.90;;;;;;5053725;28;20036;-78
2021/07/30 06:07:47;;;;;;;7.18;4.80;;;23.00;99.90;;;;;;5052594;28;20036;-78
2021/07/30 06:10:13;;;;;;;8.35;4.80;;;22.90;99.60;;;;;;5052238;28;20021;-81
2021/07/30 06:12:39;;;;;;;5.32;4.70;;;23.20;98.80;;;;;;5052867;28;20021;-85
2021/07/30 06:15:05;;;;;;;7.80;4.80;;;23.50;98.00;;;;;;5052799;28;20054;-87
2021/07/30 06:17:31;;;;;;;7.43;5.10;;;23.50;97.50;;;;;;5052759;28;20033;-81
2021/07/30 06:19:56;;;;;;;11.55;5.32;;;23.70;96.80;;;;;;5053057;28;20025;-80
2021/07/30 06:22:22;;;;;;;6.32;5.10;;;23.80;97.00;;;;;;5052894;28;20025;-80
2021/07/30 06:24:48;;;;;;;8.52;5.00;;;23.80;96.50;;;;;;5052800;28;20021;-80
2021/07/30 06:27:15;;;;;;;8.40;4.60;;;23.70;96.40;;;;;;5052589;28;20025;-80
2021/07/30 06:29:41;;;;;;;7.65;4.75;;;23.60;95.90;;;;;;5052964;28;20115;-80
2021/07/30 06:32:07;;;;;;;8.52;5.47;;;23.70;96.20;;;;;;5052674;28;20379;-81
2021/07/30 06:34:34;;;;;;;10.20;5.40;;;23.70;96.40;;;;;;5053638;28;20025;-81
2021/07/30 06:36:59;;;;;;;7.53;5.40;;;23.80;96.10;;;;;;5052617;28;20385;-87
2021/07/30 06:39:25;;;;;;;5.22;4.72;;;23.80;97.40;;;;;;5052539;28;20241;-80
2021/07/30 06:41:51;;;;;;;8.27;4.88;;;23.70;97.10;;;;;;5052388;28;20021;-80
2021/07/30 06:44:17;;;;;;;8.55;4.70;;;23.90;98.30;;;;;;5052511;28;20365;-81
2021/07/30 06:46:43;;;;;;;6.20;4.32;;;24.00;98.00;;;;;;5051420;28;20036;-80
2021/07/30 06:49:09;;;;;;;7.32;4.38;;;24.20;96.60;;;;;;5052743;28;20552;-83
2021/07/30 06:51:35;;;;;;;5.13;4.32;;;24.40;94.60;;;;;;5052538;28;20056;-87
2021/07/30 06:54:01;;;;;;;6.00;4.05;;;24.60;92.90;;;;;;5052522;28;20040;-78
2021/07/30 06:56:28;;;;;;;7.88;3.80;;;24.70;91.40;;;;;;5051913;28;20040;-77
2021/07/30 06:58:54;;;;;;;7.32;3.97;;;24.80;91.00;;;;;;5051697;28;20021;-82
2021/07/30 07:01:19;;;;;;;6.78;4.03;;;25.10;89.50;;;;;;5051906;28;20078;-79
2021/07/30 07:03:46;;;;;;;7.95;3.80;;;25.20;87.80;;;;;;5051843;28;20025;-78
2021/07/30 07:06:15;;;;;;;5.38;3.70;;;25.40;86.10;;;;;;5051811;28;20021;-82
2021/07/30 07:08:40;;;;;;;5.75;3.85;;;25.50;85.70;;;;;;5052004;28;20507;-79
2021/07/30 07:11:06;;;;;;;4.22;3.67;;;25.50;84.40;;;;;;5051942;28;20059;-79
2021/07/30 07:13:32;;;;;;;7.35;3.80;;;25.50;84.10;;;;;;5051876;28;20475;-79
2021/07/30 07:15:57;;;;;;;6.97;3.80;;;25.70;85.70;;;;;;5051809;28;20044;-78
2021/07/30 07:18:23;;;;;;;7.35;3.78;;;25.80;85.40;;;;;;5053543;28;20028;-78
2021/07/30 07:20:54;;;;;;;7.90;3.60;;;25.90;85.50;;;;;;5052331;28;20017;-86
2021/07/30 07:23:20;;;;;;;6.63;3.55;;;26.10;85.20;;;;;;5055581;28;20033;-77
2021/07/30 07:25:45;;;;;;;10.30;3.42;;;26.30;83.00;;;;;;5055567;28;20075;-77
2021/07/30 07:28:11;;;;;;;7.50;3.97;;;26.50;81.40;;;;;;5056721;28;20082;-80
2021/07/30 07:30:37;;;;;;;5.55;4.00;;;26.50;83.30;;;;;;5055383;28;20090;-77
2021/07/30 07:33:03;;;;;;;5.38;3.30;;;26.60;82.80;;;;;;5054807;28;20418;-79
2021/07/30 07:35:28;;;;;;;7.78;4.03;;;26.80;84.00;;;;;;5055782;28;20039;-78
2021/07/30 07:38:01;;;;;;;5.90;3.80;;;26.80;84.70;;;;;;5054870;28;20025;-77
2021/07/30 07:40:27;;;;;;;6.88;3.42;;;26.80;82.70;;;;;;5055087;28;20068;-78
2021/07/30 07:42:52;;;;;;;5.60;3.78;;;26.90;82.40;;;;;;5056186;28;20049;-78
2021/07/30 07:45:18;;;;;;;6.80;3.88;;;26.90;83.10;;;;;;5055199;28;20029;-78
2021/07/30 07:47:43;;;;;;;6.88;3.75;;;27.00;84.60;;;;;;5054058;28;20136;-77
2021/07/30 07:50:09;;;;;;;8.65;4.65;;;27.10;83.90;;;;;;5053929;28;20488;-79
2021/07/30 07:52:35;;;;;;;10.55;4.60;;;27.20;85.00;;;;;;5054081;28;20018;-77
2021/07/30 07:55:01;;;;;;;7.32;4.28;;;27.30;83.80;;;;;;5053986;28;20494;-77
2021/07/30 07:57:27;;;;;;;4.88;4.10;;;27.20;86.20;;;;;;5054271;28;20021;-77
2021/07/30 07:59:53;;;;;;;6.97;4.50;;;27.40;84.10;;;;;;5055403;28;20021;-76
2021/07/30 08:02:18;;;;;;;6.30;4.35;;;27.40;87.30;;;;;;5055085;28;20025;-77
2021/07/30 08:04:44;;;;;;;6.68;4.15;;;27.40;85.70;;;;;;5054133;28;20021;-78
2021/07/30 08:07:12;;;;;;;5.82;4.15;;;27.40;89.50;;;;;;5054593;28;20025;-88
2021/07/30 08:09:38;;;;;;;6.00;4.43;;;27.50;89.60;;;;;;5054055;28;20035;-79
2021/07/30 08:12:04;;;;;;;5.53;4.32;;;27.40;90.40;;;;;;5054188;28;20033;-77
2021/07/30 08:14:30;;;;;;;4.43;3.70;;;27.50;90.90;;;;;;5052981;28;20047;-83
2021/07/30 08:16:56;;;;;;;4.60;3.90;;;27.50;89.20;;;;;;5052682;28;20033;-85
2021/07/30 08:19:21;;;;;;;6.97;4.32;;;27.60;90.20;;;;;;5054289;28;20028;-79
2021/07/30 08:21:47;;;;;;;4.70;4.10;;;27.80;88.90;;;;;;5054211;28;20029;-79
2021/07/30 08:24:13;;;;;;;5.80;4.20;;;27.80;88.50;;;;;;5054604;28;20078;-80
2021/07/30 08:26:38;;;;;;;8.57;5.07;;;27.90;89.60;;;;;;5054557;28;20074;-82
2021/07/30 08:29:04;;;;;;;5.57;4.32;;;27.90;87.90;;;;;;5054736;28;20060;-83
2021/07/30 08:31:30;;;;;;;4.93;4.30;;;28.10;87.90;;;;;;5054603;28;20498;-82
2021/07/30 08:33:55;;;;;;;6.43;4.47;;;28.20;86.30;;;;;;5054478;28;20033;-82
2021/07/30 08:36:21;;;;;;;10.60;4.60;;;28.20;84.50;;;;;;5054507;28;20033;-82
2021/07/30 08:38:47;;;;;;;6.15;4.25;;;28.10;83.10;;;;;;5054171;28;20103;-82
2021/07/30 08:41:22;;;;;;;11.15;4.72;;;28.10;82.60;;;;;;5054361;28;20029;-81
2021/07/30 08:43:52;;;;;;;8.13;4.65;;;28.20;85.80;;;;;;5054265;28;20017;-82
2021/07/30 08:46:21;;;;;;;6.22;4.55;;;28.40;83.20;;;;;;5055199;28;20017;-81
2021/07/30 08:48:47;;;;;;;6.72;4.25;;;28.50;82.70;;;;;;5054227;28;20102;-82
2021/07/30 08:51:16;;;;;;;9.40;4.32;;;28.60;83.10;;;;;;5053874;28;20468;-82
2021/07/30 08:53:45;;;;;;;6.95;4.15;;;28.70;81.50;;;;;;5054181;28;20116;-81
2021/07/30 08:56:11;;;;;;;8.35;4.07;;;28.70;79.50;;;;;;5053902;28;20129;-81
2021/07/30 08:58:36;;;;;;;14.00;4.50;;;28.70;79.10;;;;;;5054169;28;20032;-81
2021/07/30 09:01:02;;;;;;;6.50;3.65;;;28.90;83.20;;;;;;5054187;28;20115;-80
2021/07/30 09:03:45;;;;;;;6.70;4.38;;;29.00;81.60;;;;;;5054084;28;20056;-81
2021/07/30 09:06:22;;;;;;;9.40;4.40;;;29.10;81.90;;;;;;5054081;28;20029;-81
2021/07/30 09:08:54;;;;;;;6.10;4.15;;;29.10;78.20;;;;;;5054004;28;20031;-81
2021/07/30 09:11:30;;;;;;;10.15;4.60;;;29.20;80.70;;;;;;5053453;28;20048;-80
2021/07/30 09:13:57;;;;;;;6.90;4.32;;;29.20;78.90;;;;;;5053619;28;20017;-82
2021/07/30 09:16:23;;;;;;;10.18;4.60;;;29.20;78.40;;;;;;5053493;28;20102;-80
2021/07/30 09:18:51;;;;;;;9.93;4.75;;;29.30;78.40;;;;;;5054930;28;20091;-81
2021/07/30 09:21:30;;;;;;;6.15;4.35;;;29.30;77.60;;;;;;5053478;28;20029;-80
2021/07/30 09:24:00;;;;;;;7.18;4.25;;;29.40;76.50;;;;;;5054617;28;20109;-80
2021/07/30 09:26:36;;;;;;;8.52;4.82;;;29.50;75.40;;;;;;5053103;28;20021;-81
2021/07/30 09:29:05;;;;;;;9.30;4.38;;;29.40;76.40;;;;;;5053260;28;20032;-79
2021/07/30 09:31:55;;;;;;;11.30;4.40;;;29.50;76.80;;;;;;5052805;28;20376;-79
2021/07/30 09:34:27;;;;;;;7.05;4.60;;;29.60;74.30;;;;;;5045612;28;20389;-78
2021/07/30 09:36:52;;;;;;;7.38;4.30;;;29.60;74.80;;;;;;5052725;28;20044;-80
2021/07/30 09:39:31;;;;;;;5.70;4.45;;;29.60;73.70;;;;;;5053000;28;20036;-80
2021/07/30 09:42:05;;;;;;;9.75;4.40;;;29.50;74.20;;;;;;5052570;28;20025;-80
2021/07/30 09:44:36;;;;;;;7.20;4.53;;;29.60;76.00;;;;;;5052619;28;20032;-80
2021/07/30 09:47:21;;;;;;;7.85;4.15;;;29.70;76.40;;;;;;5052658;28;20140;-80
2021/07/30 09:49:51;;;;;;;5.90;4.18;;;29.90;76.80;;;;;;5052656;28;20444;-79
2021/07/30 09:52:18;;;;;;;9.85;4.38;;;30.00;75.30;;;;;;5052760;28;20025;-80
2021/07/30 09:54:58;;;;;;;6.60;4.00;;;30.00;73.60;;;;;;5053860;28;20017;-80
2021/07/30 09:57:44;;;;;;;7.78;4.55;;;29.90;74.30;;;;;;5053969;28;20024;-80
2021/07/30 10:00:14;;;;;;;6.57;4.15;;;30.00;74.20;;;;;;5052730;28;20083;-79
2021/07/30 10:02:43;;;;;;;10.77;4.22;;;30.10;75.30;;;;;;5052517;28;20032;-81
2021/07/30 10:05:10;;;;;;;7.13;4.00;;;30.10;74.80;;;;;;5052418;28;20055;-81
2021/07/30 10:07:38;;;;;;;7.97;4.20;;;30.20;74.50;;;;;;5052891;28;20024;-80
2021/07/30 10:10:12;;;;;;;10.63;4.72;;;30.30;73.20;;;;;;5053957;28;20028;-80
2021/07/30 10:12:42;;;;;;;8.52;4.13;;;30.40;70.20;;;;;;5052599;28;20028;-84
2021/07/30 10:15:09;;;;;;;8.65;4.40;;;30.20;71.20;;;;;;5052554;28;20040;-81
2021/07/30 10:17:42;;;;;;;10.75;4.60;;;30.00;71.60;;;;;;5051594;28;20392;-81
2021/07/30 10:20:09;;;;;;;5.80;4.28;;;29.90;73.00;;;;;;5052122;28;20365;-77
2021/07/30 10:22:54;;;;;;;5.63;4.18;;;30.00;74.70;;;;;;5051849;28;20078;-77
2021/07/30 10:25:24;;;;;;;7.80;4.00;;;30.00;73.10;;;;;;5050759;28;20483;-80
2021/07/30 10:27:54;;;;;;;7.38;4.10;;;30.00;74.90;;;;;;5052390;28;20691;-80
2021/07/30 10:30:19;;;;;;;8.07;4.75;;;30.20;74.70;;;;;;5052180;28;20483;-79
2021/07/30 10:32:53;;;;;;;6.57;4.03;;;30.20;71.60;;;;;;5050887;28;20025;-81
2021/07/30 10:35:41;;;;;;;6.70;4.57;;;30.20;72.30;;;;;;5051196;28;20032;-80
2021/07/30 10:38:18;;;;;;;9.90;4.75;;;30.30;72.80;;;;;;5050746;28;20043;-81
2021/07/30 10:41:05;;;;;;;6.90;4.10;;;30.30;72.00;;;;;;5050667;28;20033;-81
2021/07/30 10:43:33;;;;;;;9.43;4.28;;;30.40;71.70;;;;;;5051003;28;20021;-77
2021/07/30 10:46:05;;;;;;;8.05;4.85;;;30.30;71.90;;;;;;5051184;28;20021;-77
2021/07/30 10:48:31;;;;;;;6.30;4.13;;;30.20;71.60;;;;;;5051164;28;20091;-78
2021/07/30 10:51:01;;;;;;;6.78;4.50;;;29.90;73.50;;;;;;5051906;28;20021;-78
2021/07/30 10:53:38;;;;;;;5.95;4.80;;;30.00;72.70;;;;;;5050498;28;20032;-78
2021/07/30 10:56:04;;;;;;;6.70;4.43;;;30.10;72.30;;;;;;5052856;28;20112;-77
2021/07/30 10:58:53;;;;;;;5.35;4.25;;;30.00;69.60;;;;;;5055568;28;20498;-80
2021/07/30 11:01:28;;;;;;;5.28;4.20;;;29.80;70.50;;;;;;5056085;28;20103;-81
2021/07/30 11:03:54;;;;;;;5.78;4.35;;;29.60;70.40;;;;;;5056073;28;20025;-80
2021/07/30 11:06:26;;;;;;;6.57;4.68;;;29.40;71.60;;;;;;5055941;28;20028;-78
2021/07/30 11:09:02;;;;;;;6.57;4.80;;;29.40;73.10;;;;;;5055902;28;20056;-81
2021/07/30 11:11:40;;;;;;;8.00;4.55;;;29.50;75.80;;;;;;5055562;28;20054;-79
2021/07/30 11:14:12;;;;;;;7.95;4.72;;;29.90;75.80;;;;;;5055293;28;20029;-79
2021/07/30 11:16:39;;;;;;;5.32;4.45;;;30.20;76.00;;;;;;5055505;28;20056;-79
2021/07/30 11:19:05;;;;;;;6.47;4.43;;;30.50;74.30;;;;;;5055574;28;20021;-78
2021/07/30 11:21:31;;;;;;;7.13;4.60;;;30.70;73.70;;;;;;5055505;28;20172;-80
2021/07/30 11:23:57;;;;;;;6.28;4.22;;;30.60;74.20;;;;;;5055490;28;20095;-81
2021/07/30 11:26:25;;;;;;;9.73;4.82;;;30.50;74.00;;;;;;5055857;28;20032;-81
2021/07/30 11:29:02;;;;;;;7.35;4.28;;;30.40;71.90;;;;;;5055594;28;20053;-81
2021/07/30 11:31:28;;;;;;;5.07;4.57;;;30.40;71.60;;;;;;5055346;28;20025;-81
2021/07/30 11:33:54;;;;;;;8.07;4.15;;;30.30;72.20;;;;;;5056869;28;20079;-80
2021/07/30 11:36:20;;;;;;;5.55;4.20;;;30.30;72.10;;;;;;5055800;28;20511;-81
2021/07/30 11:38:53;;;;;;;8.88;4.32;;;30.20;71.10;;;;;;5055568;28;20112;-82
2021/07/30 11:41:20;;;;;;;9.27;4.18;;;30.10;71.90;;;;;;5055577;28;20040;-81
2021/07/30 11:44:04;;;;;;;6.53;3.92;;;30.20;71.10;;;;;;5055435;28;20040;-81
2021/07/30 11:46:31;;;;;;;8.38;4.43;;;30.30;71.20;;;;;;5056337;28;20041;-81
2021/07/30 11:49:01;;;;;;;6.72;4.10;;;30.70;68.50;;;;;;5055372;28;20021;-82
2021/07/30 11:51:28;;;;;;;8.82;4.00;;;31.00;66.60;;;;;;5056374;28;20108;-81
2021/07/30 11:53:55;;;;;;;7.05;4.22;;;31.10;67.70;;;;;;5054987;28;20079;-81
2021/07/30 11:56:22;;;;;;;4.88;4.20;;;30.90;66.30;;;;;;5054998;28;20121;-82
2021/07/30 11:59:00;;;;;;;7.20;3.97;;;30.60;68.40;;;;;;5056426;28;20368;-81
2021/07/30 12:01:26;;;;;;;8.35;4.63;;;30.60;66.40;;;;;;5055085;28;20021;-82
2021/07/30 12:04:11;;;;;;;7.07;4.13;;;30.50;68.20;;;;;;5054902;28;20025;-80
2021/07/30 12:06:42;;;;;;;9.63;4.45;;;30.40;66.50;;;;;;5054648;28;20021;-82
2021/07/30 12:09:10;;;;;;;6.28;4.53;;;30.70;66.40;;;;;;5056114;28;20067;-80
2021/07/30 12:11:37;;;;;;;5.95;4.00;;;30.90;63.60;;;;;;5054723;28;20017;-82
2021/07/30 12:14:04;;;;;;;8.05;4.00;;;31.00;63.10;;;;;;5054848;28;20032;-79
2021/07/30 12:16:30;;;;;;;5.10;4.13;;;31.00;64.60;;;;;;5054880;28;20036;-81
2021/07/30 12:18:56;;;;;;;6.22;4.07;;;30.90;65.00;;;;;;5054994;28;20028;-82
2021/07/30 12:21:24;;;;;;;4.90;3.53;;;31.10;63.00;;;;;;5054444;28;20029;-81
2021/07/30 12:23:49;;;;;;;3.95;3.38;;;31.40;63.70;;;;;;5054837;28;20070;-81
2021/07/30 12:26:35;;;;;;;5.60;4.10;;;31.70;63.40;;;;;;5055041;28;20092;-80
2021/07/30 12:29:01;;;;;;;5.28;3.67;;;31.80;63.20;;;;;;5052952;28;20108;-82
2021/07/30 12:31:27;;;;;;;6.20;3.92;;;31.80;62.40;;;;;;5054372;28;20121;-81
2021/07/30 12:34:16;;;;;;;5.75;4.18;;;31.80;62.10;;;;;;5054464;28;20029;-81
2021/07/30 12:36:42;;;;;;;7.15;4.20;;;31.90;62.40;;;;;;5054366;28;20067;-82
2021/07/30 12:39:09;;;;;;;7.40;3.95;;;32.00;61.30;;;;;;5054443;28;20482;-81
2021/07/30 12:41:35;;;;;;;12.82;4.32;;;31.90;60.70;;;;;;5054271;28;20029;-81
2021/07/30 12:44:15;;;;;;;6.20;4.18;;;31.70;61.70;;;;;;5054241;28;20029;-81
2021/07/30 12:46:50;;;;;;;6.72;4.25;;;31.40;61.50;;;;;;5055184;28;20094;-82
2021/07/30 12:49:28;;;;;;;6.43;4.40;;;31.30;64.40;;;;;;5054521;28;20018;-81
2021/07/30 12:51:55;;;;;;;8.18;4.20;;;31.20;66.80;;;;;;5053562;28;20119;-81